עמוד ראשי
METAR-TAF:

METAR-TAF

שדות תעופה :

Qurayyat, ערב הסעודית

קו רוחב: 31-24N, קו אורך: 037-16E, גובה: 509מטר

תצפית מזג אוויר נוכחית

הדו"ח נערך לפני 1 שעות ו 12דקות, בשעה 09:00 UTC
רוח רגועה
טמפרטורת 40 צלסיוס
לחות 9%
לחץ 1009 hPa
ראות 10 קילומטר או יותר
ללא עננים שבסיסם נמוך מ 5000 רגל או קומולונימבוס

METAR: OEGT 190900Z 00000KT CAVOK 40/01 Q1009 NOSIG

זמן: 13:12 (10:12 UTC)

תחזית

הדו"ח נערך לפני 11 שעות ו 12דקות, בשעה 23:00 UTC
תחזית בתוקף מ 19 ב 00 UTC עד 20 ב 06 UTC
רוח 10קשר מכיוון מערב/צפון-מערב
ראות 10 קילומטר או יותר
ללא עננים שבסיסם נמוך מ 5000 רגל או קומולונימבוס
יעשה מ
19 ב 06 UTC עד 19 ב 08 UTC
רוח 8קשר מכיוון דרום
ראות 10 קילומטר או יותר
מעט עננים בגובה 4000רגל
זמנית מ -
19 ב 12 UTC עד 20 ב 00 UTC
מעט עננים בגובה 3500רגל , קומולונימבוס.
עננים פזורים בגובה 4000רגל
יעשה מ
19 ב 18 UTC עד 19 ב 20 UTC
רוח 18קשר מכיוון מערב/צפון-מערב

TAF: OEGT 182300Z 1900/2006 30010KT CAVOK BECMG 1906/1908 18008KT 9999 FEW040 TEMPO 1912/2000 FEW035CB SCT040 BECMG 1918/1920 30018KT

תצפיות ותחזיות מזג אוויר לגבי יותר מ- 4,000 שדות תעופה ברחבי העולם. דוחות METAR ו- TAF.

התחנות הזמינות מסומנות בנקודות צהובות ואדומות על גבי המפה.

העבר את העכבר לנקודה הצבעונית על מנת לראות את שם התחנה.

לאחר מכן, לחץ כדי לראות את תוכן ואת תחזיות מזג האוויר.

כדי לשנות את המפה: לחץ על הכפתורים הירוקים עם הפלוס השחור כדי להתקרב; על הכפתור הירוק עם המקף כדי להתרחק; או בחיצים הירוקים למפות סמוכות.


METAR-TAF: